Time;durP1;ratioP1;P1;durP2;ratioP2;P2;SDS_P1;SDS_P2;PMS_P1;PMS_P2;Temp;Humidity;BMP_temperature;BMP_pressure;BME280_temperature;BME280_humidity;BME280_pressure;Samples;Min_cycle;Max_cycle;Signal;HPM_P1;HPM_P2
2021/04/18 00:02:03;;;;;;;15.27;4.43;;;;;;;;;;5052994;28;20025;-80
2021/04/18 00:04:28;;;;;;;14.13;5.07;;;;;;;;;;5053280;28;20409;-81
2021/04/18 00:06:53;;;;;;;9.67;4.83;;;;;;;;;;5051458;28;20024;-81
2021/04/18 00:09:18;;;;;;;14.10;4.53;;;;;;;;;;5052690;28;20039;-81
2021/04/18 00:11:44;;;;;;;7.83;3.90;;;;;;;;;;5053425;28;20013;-81
2021/04/18 00:14:09;;;;;;;13.67;4.93;;;;;;;;;;5052956;28;20025;-81
2021/04/18 00:16:35;;;;;;;11.50;4.70;;;;;;;;;;5053177;28;20118;-81
2021/04/18 00:19:01;;;;;;;12.30;4.97;;;;;;;;;;5052790;28;20091;-81
2021/04/18 00:21:26;;;;;;;10.43;4.83;;;;;;;;;;5051856;28;20021;-81
2021/04/18 00:23:51;;;;;;;11.73;4.87;;;;;;;;;;5051654;28;20029;-81
2021/04/18 00:26:16;;;;;;;10.90;5.00;;;;;;;;;;5053117;28;20066;-81
2021/04/18 00:28:42;;;;;;;12.30;5.27;;;;;;;;;;5051719;28;20029;-81
2021/04/18 00:31:07;;;;;;;13.40;4.70;;;;;;;;;;5052938;28;20017;-81
2021/04/18 00:33:32;;;;;;;15.23;4.80;;;;;;;;;;5053062;28;20064;-81
2021/04/18 00:35:57;;;;;;;13.20;5.50;;;;;;;;;;5052989;28;20045;-80
2021/04/18 00:38:22;;;;;;;12.30;4.83;;;;;;;;;;5051677;28;20520;-81
2021/04/18 00:40:48;;;;;;;15.37;4.67;;;;;;;;;;5037761;28;20083;-82
2021/04/18 00:43:13;;;;;;;12.27;5.20;;;;;;;;;;5051730;28;20021;-80
2021/04/18 00:45:38;;;;;;;14.23;4.90;;;;;;;;;;5051281;28;20495;-81
2021/04/18 00:48:04;;;;;;;12.37;4.60;;;;;;;;;;5052824;28;20299;-81
2021/04/18 00:50:30;;;;;;;8.07;4.60;;;;;;;;;;5051568;28;20021;-80
2021/04/18 00:52:56;;;;;;;10.83;4.70;;;;;;;;;;5052527;28;20028;-81
2021/04/18 00:55:23;;;;;;;19.70;5.43;;;;;;;;;;5052746;28;20384;-81
2021/04/18 00:57:49;;;;;;;13.40;5.00;;;;;;;;;;5050402;28;20215;-81
2021/04/18 01:00:15;;;;;;;15.17;5.17;;;;;;;;;;5052273;28;20139;-81
2021/04/18 01:02:40;;;;;;;10.50;4.87;;;;;;;;;;5051840;28;20449;-80
2021/04/18 01:05:06;;;;;;;12.50;5.00;;;;;;;;;;5051850;28;20028;-81
2021/04/18 01:07:31;;;;;;;14.20;5.23;;;;;;;;;;5051774;28;20020;-80
2021/04/18 01:09:58;;;;;;;17.77;5.23;;;;;;;;;;5051899;28;20017;-81
2021/04/18 01:12:23;;;;;;;14.00;5.27;;;;;;;;;;5052428;28;20016;-81
2021/04/18 01:14:48;;;;;;;15.87;5.23;;;;;;;;;;5051058;28;20388;-80
2021/04/18 01:17:13;;;;;;;12.23;5.20;;;;;;;;;;5052066;28;20056;-81
2021/04/18 01:19:38;;;;;;;14.10;5.57;;;;;;;;;;5052241;28;20449;-81
2021/04/18 01:22:04;;;;;;;19.87;5.20;;;;;;;;;;5051025;28;20021;-81
2021/04/18 01:24:29;;;;;;;17.07;5.70;;;;;;;;;;5044326;28;20130;-81
2021/04/18 01:26:55;;;;;;;14.10;5.00;;;;;;;;;;5052399;28;20116;-81
2021/04/18 01:29:20;;;;;;;12.10;5.00;;;;;;;;;;5050991;28;20025;-81
2021/04/18 01:31:45;;;;;;;15.83;5.43;;;;;;;;;;5061268;28;20031;-80
2021/04/18 01:34:12;;;;;;;13.20;5.50;;;;;;;;;;5050587;28;20102;-81
2021/04/18 01:36:37;;;;;;;13.40;4.80;;;;;;;;;;5052240;28;20018;-80
2021/04/18 01:39:03;;;;;;;13.70;5.23;;;;;;;;;;5051072;28;20364;-80
2021/04/18 01:41:28;;;;;;;13.80;5.40;;;;;;;;;;5051979;28;20417;-81
2021/04/18 01:43:53;;;;;;;10.63;4.87;;;;;;;;;;5050927;28;20025;-81
2021/04/18 01:46:18;;;;;;;21.13;5.23;;;;;;;;;;5052098;28;20013;-80
2021/04/18 01:48:44;;;;;;;13.30;5.70;;;;;;;;;;5050608;28;20024;-80
2021/04/18 01:51:09;;;;;;;17.20;6.20;;;;;;;;;;5050651;28;20025;-80
2021/04/18 01:53:35;;;;;;;18.93;6.20;;;;;;;;;;5050903;28;20025;-81
2021/04/18 01:56:00;;;;;;;15.60;5.50;;;;;;;;;;5052131;28;20029;-81
2021/04/18 01:58:25;;;;;;;13.33;5.60;;;;;;;;;;5053739;28;20108;-81
2021/04/18 02:00:51;;;;;;;22.33;5.53;;;;;;;;;;5055402;28;20108;-81
2021/04/18 02:03:16;;;;;;;19.47;5.93;;;;;;;;;;5054182;28;20028;-81
2021/04/18 02:05:41;;;;;;;12.13;5.27;;;;;;;;;;5055548;28;20017;-81
2021/04/18 02:08:06;;;;;;;16.30;5.67;;;;;;;;;;5055794;28;20025;-81
2021/04/18 02:10:31;;;;;;;12.93;6.17;;;;;;;;;;5054304;28;20009;-81
2021/04/18 02:12:57;;;;;;;14.07;5.70;;;;;;;;;;5055572;28;20369;-81
2021/04/18 02:15:22;;;;;;;14.60;5.17;;;;;;;;;;5055655;28;20048;-81
2021/04/18 02:17:47;;;;;;;19.30;5.70;;;;;;;;;;5053988;28;20082;-81
2021/04/18 02:20:16;;;;;;;14.50;5.70;;;;;;;;;;5055453;28;20023;-81
2021/04/18 02:22:41;;;;;;;15.00;5.40;;;;;;;;;;5054104;28;20067;-81
2021/04/18 02:25:06;;;;;;;15.40;6.30;;;;;;;;;;5055431;28;20049;-81
2021/04/18 02:27:31;;;;;;;14.30;6.17;;;;;;;;;;5055263;28;20399;-81
2021/04/18 02:29:57;;;;;;;13.13;5.80;;;;;;;;;;5045368;28;20476;-81
2021/04/18 02:32:22;;;;;;;16.40;5.70;;;;;;;;;;5050142;28;20021;-81
2021/04/18 02:34:48;;;;;;;14.70;5.57;;;;;;;;;;5054005;28;20025;-81
2021/04/18 02:37:13;;;;;;;12.80;5.33;;;;;;;;;;5054769;28;20048;-81
2021/04/18 02:39:38;;;;;;;15.37;5.37;;;;;;;;;;5050348;28;20021;-81
2021/04/18 02:42:04;;;;;;;15.23;5.93;;;;;;;;;;5045745;28;20025;-81
2021/04/18 02:44:29;;;;;;;17.87;6.33;;;;;;;;;;5050953;28;20035;-81
2021/04/18 02:46:54;;;;;;;18.17;6.20;;;;;;;;;;5042563;28;20013;-81
2021/04/18 02:49:19;;;;;;;13.27;5.33;;;;;;;;;;5054535;28;20063;-81
2021/04/18 02:51:45;;;;;;;15.70;6.37;;;;;;;;;;5041346;28;20280;-81
2021/04/18 02:54:10;;;;;;;17.73;6.57;;;;;;;;;;5054572;28;20056;-81
2021/04/18 02:56:35;;;;;;;15.97;6.13;;;;;;;;;;5049078;28;20029;-81
2021/04/18 02:59:00;;;;;;;16.30;5.77;;;;;;;;;;5052006;28;20020;-81
2021/04/18 03:01:26;;;;;;;15.53;5.30;;;;;;;;;;5052081;28;20025;-80
2021/04/18 03:03:51;;;;;;;15.47;5.93;;;;;;;;;;5044770;28;20374;-81
2021/04/18 03:06:16;;;;;;;18.37;6.20;;;;;;;;;;5053906;28;20013;-81
2021/04/18 03:08:41;;;;;;;14.43;5.93;;;;;;;;;;5053671;28;20029;-81
2021/04/18 03:11:07;;;;;;;18.87;6.27;;;;;;;;;;5043437;28;20025;-81
2021/04/18 03:13:32;;;;;;;16.37;6.50;;;;;;;;;;5042733;28;20059;-81
2021/04/18 03:15:57;;;;;;;17.77;6.03;;;;;;;;;;5052603;28;20073;-81
2021/04/18 03:18:22;;;;;;;16.07;5.83;;;;;;;;;;5052163;28;20017;-81
2021/04/18 03:20:48;;;;;;;17.93;6.40;;;;;;;;;;5039003;28;20074;-81
2021/04/18 03:23:13;;;;;;;14.83;6.30;;;;;;;;;;5050943;28;20025;-81
2021/04/18 03:25:38;;;;;;;17.60;6.63;;;;;;;;;;5048925;28;20031;-81
2021/04/18 03:28:04;;;;;;;24.03;6.30;;;;;;;;;;5052421;28;20021;-81
2021/04/18 03:30:31;;;;;;;17.00;7.20;;;;;;;;;;5053132;28;20024;-81
2021/04/18 03:32:56;;;;;;;18.43;6.67;;;;;;;;;;5051534;28;20021;-81
2021/04/18 03:35:22;;;;;;;16.33;6.37;;;;;;;;;;5046286;28;20040;-81
2021/04/18 03:37:47;;;;;;;18.63;6.60;;;;;;;;;;5045588;28;20108;-81
2021/04/18 03:40:12;;;;;;;15.90;6.43;;;;;;;;;;5045779;28;20070;-81
2021/04/18 03:42:37;;;;;;;14.57;5.63;;;;;;;;;;5048123;28;20040;-81
2021/04/18 03:45:04;;;;;;;18.43;6.43;;;;;;;;;;5053205;28;20052;-81
2021/04/18 03:47:29;;;;;;;16.93;5.77;;;;;;;;;;5052732;28;20423;-81
2021/04/18 03:49:54;;;;;;;14.83;5.93;;;;;;;;;;5051760;28;20066;-81
2021/04/18 03:52:20;;;;;;;17.33;5.73;;;;;;;;;;5052032;28;20021;-81
2021/04/18 03:54:45;;;;;;;21.17;6.33;;;;;;;;;;5047939;28;20033;-81
2021/04/18 03:57:10;;;;;;;14.57;6.27;;;;;;;;;;5053136;28;20118;-81
2021/04/18 03:59:35;;;;;;;16.70;5.93;;;;;;;;;;5040804;28;20341;-81
2021/04/18 04:02:01;;;;;;;16.70;6.10;;;;;;;;;;5052536;28;20456;-81
2021/04/18 04:04:26;;;;;;;12.97;5.73;;;;;;;;;;5049632;28;20112;-81
2021/04/18 04:06:52;;;;;;;15.27;5.77;;;;;;;;;;5044951;28;20025;-81
2021/04/18 04:09:17;;;;;;;18.30;5.73;;;;;;;;;;5061822;28;20023;-81
2021/04/18 04:11:42;;;;;;;14.27;5.60;;;;;;;;;;5040760;28;20026;-81
2021/04/18 04:14:07;;;;;;;14.97;5.93;;;;;;;;;;5044597;28;20452;-81
2021/04/18 04:16:33;;;;;;;12.00;5.57;;;;;;;;;;5044836;28;20049;-81
2021/04/18 04:18:58;;;;;;;12.87;5.50;;;;;;;;;;5048830;28;20025;-81
2021/04/18 04:21:23;;;;;;;18.03;6.37;;;;;;;;;;5042640;28;20029;-81
2021/04/18 04:23:48;;;;;;;12.00;6.00;;;;;;;;;;5044132;28;20025;-81
2021/04/18 04:26:13;;;;;;;12.97;5.70;;;;;;;;;;5051691;28;20025;-81
2021/04/18 04:28:39;;;;;;;11.83;5.60;;;;;;;;;;5045334;28;20024;-81
2021/04/18 04:31:04;;;;;;;17.27;5.77;;;;;;;;;;5043139;28;20385;-81
2021/04/18 04:33:33;;;;;;;13.90;5.73;;;;;;;;;;5050800;28;20016;-81
2021/04/18 04:35:58;;;;;;;16.97;6.17;;;;;;;;;;5050868;28;20017;-81
2021/04/18 04:38:24;;;;;;;18.47;5.47;;;;;;;;;;5049970;28;20027;-81
2021/04/18 04:40:49;;;;;;;18.13;6.17;;;;;;;;;;5048157;28;20024;-81
2021/04/18 04:43:14;;;;;;;15.97;5.63;;;;;;;;;;5051673;28;20520;-81
2021/04/18 04:45:39;;;;;;;13.57;5.80;;;;;;;;;;5043236;28;20028;-81
2021/04/18 04:48:05;;;;;;;14.60;6.33;;;;;;;;;;5057563;28;20519;-81
2021/04/18 04:50:30;;;;;;;15.77;7.10;;;;;;;;;;5042260;28;20071;-81
2021/04/18 04:52:55;;;;;;;15.00;6.97;;;;;;;;;;5042327;28;20052;-81
2021/04/18 04:55:20;;;;;;;17.90;6.40;;;;;;;;;;5051724;28;20021;-81
2021/04/18 04:57:45;;;;;;;16.93;6.37;;;;;;;;;;5081803;28;20365;-80
2021/04/18 05:00:11;;;;;;;15.30;7.13;;;;;;;;;;5050654;28;20061;-81
2021/04/18 05:02:36;;;;;;;17.03;6.30;;;;;;;;;;5051838;28;21230;-81
2021/04/18 05:05:02;;;;;;;14.70;6.83;;;;;;;;;;5049912;28;20032;-81
2021/04/18 05:07:27;;;;;;;11.17;6.57;;;;;;;;;;5050202;28;20013;-81
2021/04/18 05:09:52;;;;;;;16.80;7.43;;;;;;;;;;5047501;28;20029;-81
2021/04/18 05:12:18;;;;;;;16.17;7.50;;;;;;;;;;5075192;28;20045;-81
2021/04/18 05:14:43;;;;;;;15.03;7.10;;;;;;;;;;5043536;28;20082;-81
2021/04/18 05:17:08;;;;;;;17.37;6.77;;;;;;;;;;5048817;28;20026;-81
2021/04/18 05:19:34;;;;;;;21.50;7.80;;;;;;;;;;5049280;28;20029;-81
2021/04/18 05:21:59;;;;;;;17.17;7.87;;;;;;;;;;5049173;28;20021;-81
2021/04/18 05:24:24;;;;;;;17.43;7.30;;;;;;;;;;5050298;28;20534;-81
2021/04/18 05:26:49;;;;;;;23.60;8.30;;;;;;;;;;5043609;28;20021;-81
2021/04/18 05:29:15;;;;;;;16.97;7.40;;;;;;;;;;5049807;28;20025;-81
2021/04/18 05:31:40;;;;;;;19.47;7.93;;;;;;;;;;5052746;28;20109;-81
2021/04/18 05:34:05;;;;;;;18.57;8.17;;;;;;;;;;5052849;28;20400;-81
2021/04/18 05:36:30;;;;;;;23.93;8.83;;;;;;;;;;5053006;28;20012;-81
2021/04/18 05:38:56;;;;;;;23.23;10.43;;;;;;;;;;5050026;28;20021;-81
2021/04/18 05:41:21;;;;;;;22.80;10.40;;;;;;;;;;5048077;28;20075;-81
2021/04/18 05:43:47;;;;;;;21.60;10.70;;;;;;;;;;5076883;28;20029;-81
2021/04/18 05:46:12;;;;;;;24.70;10.77;;;;;;;;;;5053008;28;20028;-81
2021/04/18 05:48:37;;;;;;;25.77;10.63;;;;;;;;;;5055466;28;20059;-81
2021/04/18 05:51:02;;;;;;;27.00;10.50;;;;;;;;;;5045342;28;20153;-81
2021/04/18 05:53:27;;;;;;;20.47;8.40;;;;;;;;;;5042963;28;20401;-81
2021/04/18 05:55:53;;;;;;;17.97;9.13;;;;;;;;;;5052283;28;20091;-81
2021/04/18 05:58:18;;;;;;;23.13;10.93;;;;;;;;;;5054255;28;20035;-81
2021/04/18 06:00:43;;;;;;;27.37;11.37;;;;;;;;;;5046625;28;20025;-81
2021/04/18 06:03:09;;;;;;;21.50;11.93;;;;;;;;;;5053637;28;20104;-81
2021/04/18 06:05:34;;;;;;;26.03;11.50;;;;;;;;;;5054370;28;20102;-81
2021/04/18 06:07:59;;;;;;;31.47;11.67;;;;;;;;;;5051242;28;20028;-81
2021/04/18 06:10:25;;;;;;;26.50;12.07;;;;;;;;;;5049320;28;20481;-81
2021/04/18 06:12:50;;;;;;;26.07;11.40;;;;;;;;;;5054569;28;20481;-82
2021/04/18 06:15:15;;;;;;;31.60;13.53;;;;;;;;;;5055059;28;20044;-81
2021/04/18 06:17:40;;;;;;;29.50;13.00;;;;;;;;;;5053144;28;20416;-81
2021/04/18 06:20:06;;;;;;;25.90;11.70;;;;;;;;;;5045600;28;20024;-80
2021/04/18 06:22:31;;;;;;;23.90;11.70;;;;;;;;;;5069592;28;20013;-80
2021/04/18 06:24:56;;;;;;;31.80;13.63;;;;;;;;;;5047662;28;20055;-81
2021/04/18 06:27:22;;;;;;;27.97;14.00;;;;;;;;;;5051148;28;20028;-80
2021/04/18 06:29:47;;;;;;;32.70;14.90;;;;;;;;;;5051907;28;20029;-81
2021/04/18 06:32:12;;;;;;;28.80;14.83;;;;;;;;;;5045311;28;20024;-81
2021/04/18 06:34:37;;;;;;;29.23;14.93;;;;;;;;;;5050552;28;20487;-81
2021/04/18 06:37:03;;;;;;;37.53;15.77;;;;;;;;;;5054286;28;20029;-81
2021/04/18 06:39:28;;;;;;;32.40;15.73;;;;;;;;;;5054503;28;20029;-80
2021/04/18 06:41:55;;;;;;;36.87;16.30;;;;;;;;;;5054452;28;20044;-81
2021/04/18 06:44:21;;;;;;;40.67;16.77;;;;;;;;;;5052124;28;20108;-81
2021/04/18 06:46:49;;;;;;;39.07;18.37;;;;;;;;;;5052418;28;20163;-81
2021/04/18 06:49:15;;;;;;;34.53;16.90;;;;;;;;;;5052530;28;20021;-81
2021/04/18 06:51:40;;;;;;;37.10;18.10;;;;;;;;;;5053554;28;20024;-81
2021/04/18 06:54:06;;;;;;;36.40;18.00;;;;;;;;;;5045746;28;20052;-81
2021/04/18 06:56:31;;;;;;;39.27;17.37;;;;;;;;;;5052281;28;20021;-81
2021/04/18 06:58:57;;;;;;;34.13;16.33;;;;;;;;;;5046329;28;20457;-81
2021/04/18 07:01:22;;;;;;;34.80;17.00;;;;;;;;;;5053832;28;20087;-81
2021/04/18 07:04:06;;;;;;;35.53;16.33;;;;;;;;;;5052450;28;20125;-80
2021/04/18 07:06:39;;;;;;;32.23;16.43;;;;;;;;;;5047498;28;20032;-81
2021/04/18 07:09:04;;;;;;;35.25;16.42;;;;;;;;;;5050359;28;20024;-81
2021/04/18 07:11:41;;;;;;;31.83;17.37;;;;;;;;;;5053816;28;20024;-81
2021/04/18 07:14:18;;;;;;;34.37;17.43;;;;;;;;;;5052377;28;20025;-80
2021/04/18 07:16:43;;;;;;;37.33;16.73;;;;;;;;;;5050353;28;20027;-81
2021/04/18 07:19:17;;;;;;;30.67;17.30;;;;;;;;;;5043187;28;20107;-81
2021/04/18 07:21:52;;;;;;;31.53;15.40;;;;;;;;;;5051701;28;20444;-81
2021/04/18 07:24:18;;;;;;;33.77;16.83;;;;;;;;;;5050405;28;20096;-81
2021/04/18 07:26:43;;;;;;;37.13;17.73;;;;;;;;;;5053072;28;20017;-81
2021/04/18 07:29:15;;;;;;;35.27;16.30;;;;;;;;;;5051688;28;20021;-81
2021/04/18 07:31:40;;;;;;;;;;;;;;;;;;5054116;28;20036;-80
2021/04/18 07:34:08;;;;;;;32.40;16.35;;;;;;;;;;5051083;28;20023;-81
2021/04/18 07:36:34;;;;;;;29.47;15.13;;;;;;;;;;5053384;28;20016;-81
2021/04/18 07:38:59;;;;;;;35.33;16.53;;;;;;;;;;5052043;28;20094;-81
2021/04/18 07:41:24;;;;;;;35.13;17.27;;;;;;;;;;5042895;28;20025;-81
2021/04/18 07:43:50;;;;;;;37.90;17.10;;;;;;;;;;5040971;28;20064;-81
2021/04/18 07:46:16;;;;;;;33.77;15.97;;;;;;;;;;5051338;28;20028;-81
2021/04/18 07:48:42;;;;;;;42.10;14.67;;;;;;;;;;5047315;28;20029;-81
2021/04/18 07:51:07;;;;;;;28.80;13.87;;;;;;;;;;5049245;28;20122;-81
2021/04/18 07:53:33;;;;;;;38.20;15.93;;;;;;;;;;5053291;28;20071;-81
2021/04/18 07:55:59;;;;;;;30.63;13.50;;;;;;;;;;5051649;28;20033;-81
2021/04/18 07:58:24;;;;;;;36.80;15.30;;;;;;;;;;5051787;28;20025;-81
2021/04/18 08:00:49;;;;;;;39.60;14.60;;;;;;;;;;5052965;28;20033;-81
2021/04/18 08:03:15;;;;;;;32.70;13.27;;;;;;;;;;5052636;28;20024;-81
2021/04/18 08:05:41;;;;;;;37.63;14.00;;;;;;;;;;5047507;28;20120;-81
2021/04/18 08:08:07;;;;;;;31.33;12.20;;;;;;;;;;5051232;28;20112;-81
2021/04/18 08:10:34;;;;;;;35.77;11.90;;;;;;;;;;5047055;28;20437;-81
2021/04/18 08:13:00;;;;;;;24.70;10.90;;;;;;;;;;5048368;28;20032;-81
2021/04/18 08:15:25;;;;;;;27.70;11.60;;;;;;;;;;5051449;28;20465;-81
2021/04/18 08:18:08;;;;;;;25.03;11.10;;;;;;;;;;5045981;28;20029;-81
2021/04/18 08:20:35;;;;;;;39.17;11.07;;;;;;;;;;5045405;28;20017;-81
2021/04/18 08:23:05;;;;;;;34.97;11.03;;;;;;;;;;5052508;28;20036;-81
2021/04/18 08:25:31;;;;;;;25.00;10.30;;;;;;;;;;5070559;28;20026;-80
2021/04/18 08:27:59;;;;;;;29.07;11.07;;;;;;;;;;5052695;28;20104;-81
2021/04/18 08:30:24;;;;;;;33.90;10.57;;;;;;;;;;5050269;28;20024;-81
2021/04/18 08:32:51;;;;;;;27.60;10.30;;;;;;;;;;5040569;28;20021;-81
2021/04/18 08:35:18;;;;;;;34.70;10.87;;;;;;;;;;5048494;28;20020;-82
2021/04/18 08:37:43;;;;;;;26.03;8.93;;;;;;;;;;5051412;28;20549;-81
2021/04/18 08:40:09;;;;;;;26.57;9.13;;;;;;;;;;5046090;28;20023;-81
2021/04/18 08:42:34;;;;;;;28.90;9.70;;;;;;;;;;5051730;28;20056;-81
2021/04/18 08:45:00;;;;;;;28.37;10.40;;;;;;;;;;5048057;28;20024;-81
2021/04/18 08:47:27;;;;;;;25.93;9.43;;;;;;;;;;5050417;28;20024;-81
2021/04/18 08:49:57;;;;;;;28.03;10.87;;;;;;;;;;5040875;28;20013;-81
2021/04/18 08:52:23;;;;;;;28.20;10.17;;;;;;;;;;5048577;28;20021;-81
2021/04/18 08:54:49;;;;;;;33.97;11.60;;;;;;;;;;5051878;28;20451;-80
2021/04/18 08:57:28;;;;;;;30.23;10.87;;;;;;;;;;5052240;28;20021;-81
2021/04/18 08:59:56;;;;;;;28.43;9.97;;;;;;;;;;5067378;28;20507;-81
2021/04/18 09:02:22;;;;;;;25.10;9.27;;;;;;;;;;5049358;28;20078;-81
2021/04/18 09:04:48;;;;;;;24.13;9.10;;;;;;;;;;5043634;28;20033;-81
2021/04/18 09:07:14;;;;;;;32.47;8.57;;;;;;;;;;5050336;28;20028;-81
2021/04/18 09:09:40;;;;;;;19.00;8.17;;;;;;;;;;5050315;28;20013;-80
2021/04/18 09:12:05;;;;;;;21.17;7.00;;;;;;;;;;5052240;28;20071;-80
2021/04/18 09:14:31;;;;;;;16.20;7.20;;;;;;;;;;5045689;28;20033;-81
2021/04/18 09:17:26;;;;;;;22.70;7.93;;;;;;;;;;5046157;28;20029;-81
2021/04/18 09:19:54;;;;;;;16.17;6.43;;;;;;;;;;5046913;28;20038;-81
2021/04/18 09:22:21;;;;;;;13.10;5.23;;;;;;;;;;5052480;28;20029;-81
2021/04/18 09:24:54;;;;;;;12.13;3.72;;;;;;;;;;5051188;28;20468;-81
2021/04/18 09:27:27;;;;;;;8.70;3.58;;;;;;;;;;5047878;28;20107;-81
2021/04/18 09:29:54;;;;;;;7.75;3.15;;;;;;;;;;5050231;28;20488;-80
2021/04/18 09:32:20;;;;;;;13.43;3.53;;;;;;;;;;5051568;28;20017;-81
2021/04/18 09:34:46;;;;;;;13.40;3.70;;;;;;;;;;5050301;28;20040;-81
2021/04/18 09:37:14;;;;;;;11.30;3.90;;;;;;;;;;5074416;28;20091;-81
2021/04/18 09:39:39;;;;;;;8.90;3.80;;;;;;;;;;5050354;28;20071;-81
2021/04/18 09:42:05;;;;;;;9.57;3.70;;;;;;;;;;5044848;28;20529;-81
2021/04/18 09:44:37;;;;;;;9.93;3.72;;;;;;;;;;5050276;28;20085;-80
2021/04/18 09:47:07;;;;;;;7.63;3.17;;;;;;;;;;5042475;28;20025;-81
2021/04/18 09:49:42;;;;;;;9.95;3.97;;;;;;;;;;5049641;28;20040;-80
2021/04/18 09:52:07;;;;;;;7.68;3.55;;;;;;;;;;5046505;28;20064;-81
2021/04/18 09:54:33;;;;;;;8.20;3.80;;;;;;;;;;5045994;28;20021;-81
2021/04/18 09:57:11;;;;;;;7.35;3.25;;;;;;;;;;5046562;28;20017;-81
2021/04/18 09:59:36;;;;;;;11.85;3.42;;;;;;;;;;5047214;28;20057;-81
2021/04/18 10:02:12;;;;;;;13.25;3.88;;;;;;;;;;5045184;28;20603;-82
2021/04/18 10:04:37;;;;;;;8.02;2.97;;;;;;;;;;5048159;28;20024;-81
2021/04/18 10:07:02;;;;;;;5.95;2.90;;;;;;;;;;5048677;28;20022;-81
2021/04/18 10:09:46;;;;;;;6.00;2.92;;;;;;;;;;5051480;28;20064;-81
2021/04/18 10:12:11;;;;;;;8.15;3.17;;;;;;;;;;5048791;28;20021;-81
2021/04/18 10:14:36;;;;;;;8.93;3.75;;;;;;;;;;5049454;28;20028;-81
2021/04/18 10:17:02;;;;;;;8.40;3.65;;;;;;;;;;5049788;28;20025;-81
2021/04/18 10:19:27;;;;;;;10.10;3.42;;;;;;;;;;5051615;28;20028;-81
2021/04/18 10:22:11;;;;;;;9.00;3.65;;;;;;;;;;5053681;28;20166;-81
2021/04/18 10:24:48;;;;;;;10.75;3.50;;;;;;;;;;5059119;28;20091;-82
2021/04/18 10:27:14;;;;;;;7.03;2.80;;;;;;;;;;5049849;28;20025;-81
2021/04/18 10:29:40;;;;;;;8.68;3.53;;;;;;;;;;5049842;28;20506;-81
2021/04/18 10:32:06;;;;;;;7.65;3.42;;;;;;;;;;5052642;28;20017;-81
2021/04/18 10:34:31;;;;;;;7.93;3.65;;;;;;;;;;5048999;28;20043;-81
2021/04/18 10:36:56;;;;;;;13.30;3.42;;;;;;;;;;5053930;28;20108;-81
2021/04/18 10:39:22;;;;;;;8.85;3.17;;;;;;;;;;5053985;28;20024;-81
2021/04/18 10:41:48;;;;;;;7.10;3.40;;;;;;;;;;5053683;28;20031;-81
2021/04/18 10:44:16;;;;;;;8.07;3.05;;;;;;;;;;5048233;28;20026;-81
2021/04/18 10:47:01;;;;;;;11.18;3.47;;;;;;;;;;5054493;28;20017;-81
2021/04/18 10:49:27;;;;;;;7.60;3.85;;;;;;;;;;5051694;28;20041;-81
2021/04/18 10:51:52;;;;;;;9.13;3.60;;;;;;;;;;5052312;28;20025;-81
2021/04/18 10:54:18;;;;;;;15.77;3.33;;;;;;;;;;5054178;28;20381;-81
2021/04/18 10:56:47;;;;;;;7.38;3.20;;;;;;;;;;5054484;28;20098;-81
2021/04/18 10:59:12;;;;;;;6.45;2.88;;;;;;;;;;5053769;28;20036;-81
2021/04/18 11:01:37;;;;;;;18.63;4.18;;;;;;;;;;5050642;28;20029;-81
2021/04/18 11:04:03;;;;;;;7.88;3.92;;;;;;;;;;5046428;28;20033;-81
2021/04/18 11:06:28;;;;;;;9.48;3.85;;;;;;;;;;5054634;28;20036;-81
2021/04/18 11:08:53;;;;;;;14.80;4.68;;;;;;;;;;5056007;28;20456;-81
2021/04/18 11:11:21;;;;;;;9.18;3.70;;;;;;;;;;5055037;28;20029;-81
2021/04/18 11:13:46;;;;;;;6.43;3.85;;;;;;;;;;5053552;28;20037;-81
2021/04/18 11:16:11;;;;;;;6.82;3.85;;;;;;;;;;5052920;28;20033;-81
2021/04/18 11:18:36;;;;;;;11.27;4.13;;;;;;;;;;5052541;28;20166;-81
2021/04/18 11:21:02;;;;;;;10.63;3.63;;;;;;;;;;5046866;28;20109;-81
2021/04/18 11:23:27;;;;;;;9.70;3.78;;;;;;;;;;5053052;28;20032;-81
2021/04/18 11:25:52;;;;;;;10.60;4.03;;;;;;;;;;5052779;28;20021;-81
2021/04/18 11:28:17;;;;;;;10.18;4.60;;;;;;;;;;5052556;28;20024;-81
2021/04/18 11:30:43;;;;;;;10.23;4.05;;;;;;;;;;5052972;28;20021;-81
2021/04/18 11:33:08;;;;;;;14.18;4.53;;;;;;;;;;5052465;28;20310;-81
2021/04/18 11:35:34;;;;;;;14.52;6.13;;;;;;;;;;5048307;28;20100;-81
2021/04/18 11:38:00;;;;;;;11.25;4.80;;;;;;;;;;5046829;28;20020;-81
2021/04/18 11:40:26;;;;;;;15.77;4.78;;;;;;;;;;5049315;28;20052;-81
2021/04/18 11:42:52;;;;;;;13.70;4.75;;;;;;;;;;5051975;28;20040;-81
2021/04/18 11:45:17;;;;;;;12.82;5.00;;;;;;;;;;5053572;28;20414;-81
2021/04/18 11:47:43;;;;;;;9.32;4.10;;;;;;;;;;5052934;28;20490;-80
2021/04/18 11:50:09;;;;;;;9.57;4.40;;;;;;;;;;5048889;28;20422;-81
2021/04/18 11:52:34;;;;;;;6.18;3.53;;;;;;;;;;5049753;28;20385;-81
2021/04/18 11:54:59;;;;;;;11.10;4.40;;;;;;;;;;5053451;28;20021;-81
2021/04/18 11:57:24;;;;;;;6.97;3.78;;;;;;;;;;5046498;28;20045;-80
2021/04/18 11:59:49;;;;;;;11.57;5.40;;;;;;;;;;5052861;28;20021;-81
2021/04/18 12:02:15;;;;;;;11.35;6.15;;;;;;;;;;5045898;28;20029;-81
2021/04/18 12:04:40;;;;;;;10.13;4.30;;;;;;;;;;5042329;28;20128;-80
2021/04/18 12:07:05;;;;;;;13.35;4.40;;;;;;;;;;5051708;28;20044;-81
2021/04/18 12:09:32;;;;;;;12.18;3.85;;;;;;;;;;5046669;28;20017;-81
2021/04/18 12:11:57;;;;;;;10.50;4.45;;;;;;;;;;5051650;28;20048;-80
2021/04/18 12:14:22;;;;;;;9.13;3.70;;;;;;;;;;5053013;28;20025;-81
2021/04/18 12:16:48;;;;;;;12.55;4.22;;;;;;;;;;5044218;28;20104;-81
2021/04/18 12:19:13;;;;;;;9.73;3.92;;;;;;;;;;5045263;28;20025;-81
2021/04/18 12:21:38;;;;;;;7.88;3.60;;;;;;;;;;5052170;28;20017;-81
2021/04/18 12:24:05;;;;;;;7.63;3.90;;;;;;;;;;5052733;28;20036;-81
2021/04/18 12:26:30;;;;;;;18.05;3.38;;;;;;;;;;5050387;28;20021;-81
2021/04/18 12:28:55;;;;;;;10.02;3.03;;;;;;;;;;5044498;28;20550;-81
2021/04/18 12:31:20;;;;;;;8.57;3.42;;;;;;;;;;5051546;28;20028;-80
2021/04/18 12:33:46;;;;;;;8.70;3.58;;;;;;;;;;5050903;28;20035;-81
2021/04/18 12:36:11;;;;;;;10.52;3.30;;;;;;;;;;5052143;28;20464;-80
2021/04/18 12:38:37;;;;;;;12.77;3.95;;;;;;;;;;5053143;28;20044;-81
2021/04/18 12:41:02;;;;;;;8.30;3.65;;;;;;;;;;5048790;28;20059;-81
2021/04/18 12:43:28;;;;;;;8.63;2.90;;;;;;;;;;5044600;28;20029;-81
2021/04/18 12:45:53;;;;;;;5.47;3.35;;;;;;;;;;5049726;28;20377;-80
2021/04/18 12:48:18;;;;;;;6.65;3.20;;;;;;;;;;5049650;28;20038;-81
2021/04/18 12:50:43;;;;;;;15.65;3.30;;;;;;;;;;5049128;28;20023;-81
2021/04/18 12:53:09;;;;;;;7.53;3.40;;;;;;;;;;5051810;28;20391;-80
2021/04/18 12:55:34;;;;;;;12.27;2.75;;;;;;;;;;5045201;28;20020;-81
2021/04/18 12:57:59;;;;;;;8.40;2.58;;;;;;;;;;5049394;28;20040;-81
2021/04/18 13:00:24;;;;;;;9.07;3.58;;;;;;;;;;5046646;28;20021;-81
2021/04/18 13:02:50;;;;;;;5.57;2.88;;;;;;;;;;5047791;28;20035;-79
2021/04/18 13:05:15;;;;;;;5.50;2.70;;;;;;;;;;5045709;28;20017;-79
2021/04/18 13:07:40;;;;;;;10.32;3.40;;;;;;;;;;5051289;28;20021;-79
2021/04/18 13:10:08;;;;;;;8.07;2.97;;;;;;;;;;5048512;28;20025;-79
2021/04/18 13:12:34;;;;;;;8.40;3.67;;;;;;;;;;5051601;28;20441;-79
2021/04/18 13:14:59;;;;;;;7.93;2.95;;;;;;;;;;5051513;28;20024;-79
2021/04/18 13:17:25;;;;;;;6.20;3.17;;;;;;;;;;5051612;28;20071;-79
2021/04/18 13:19:50;;;;;;;10.07;3.80;;;;;;;;;;5046231;28;20134;-79
2021/04/18 13:22:16;;;;;;;13.40;4.28;;;;;;;;;;5051112;28;20035;-79
2021/04/18 13:24:41;;;;;;;10.32;3.65;;;;;;;;;;5044167;28;20028;-79
2021/04/18 13:27:06;;;;;;;7.60;3.53;;;;;;;;;;5048279;28;20025;-79
2021/04/18 13:29:31;;;;;;;10.93;3.83;;;;;;;;;;5082059;28;20526;-78
2021/04/18 13:31:57;;;;;;;9.93;3.88;;;;;;;;;;5051088;28;20021;-79
2021/04/18 13:34:22;;;;;;;8.50;3.53;;;;;;;;;;5045072;28;20049;-79
2021/04/18 13:36:47;;;;;;;8.45;3.63;;;;;;;;;;5047668;28;20029;-79
2021/04/18 13:39:13;;;;;;;9.75;3.88;;;;;;;;;;5046913;28;20025;-79
2021/04/18 13:41:38;;;;;;;9.73;3.90;;;;;;;;;;5046251;28;20519;-79
2021/04/18 13:44:03;;;;;;;12.20;3.80;;;;;;;;;;5042846;28;20029;-79
2021/04/18 13:46:28;;;;;;;8.13;3.63;;;;;;;;;;5044800;28;20105;-79
2021/04/18 13:48:53;;;;;;;10.00;3.55;;;;;;;;;;5048124;28;20013;-79
2021/04/18 13:51:19;;;;;;;10.60;4.15;;;;;;;;;;5047978;28;20014;-79
2021/04/18 13:53:44;;;;;;;7.82;3.88;;;;;;;;;;5048943;28;20100;-79
2021/04/18 13:56:09;;;;;;;8.82;3.55;;;;;;;;;;5046739;28;20056;-79
2021/04/18 13:58:34;;;;;;;9.73;3.75;;;;;;;;;;5050486;28;20017;-78
2021/04/18 14:00:59;;;;;;;14.98;3.35;;;;;;;;;;5051099;28;20628;-79
2021/04/18 14:03:24;;;;;;;9.20;4.10;;;;;;;;;;5054798;28;20041;-79
2021/04/18 14:05:50;;;;;;;13.65;4.15;;;;;;;;;;5054649;28;20053;-79
2021/04/18 14:08:15;;;;;;;8.57;4.00;;;;;;;;;;5053068;28;20021;-79
2021/04/18 14:10:40;;;;;;;9.48;3.78;;;;;;;;;;5054960;28;20460;-79
2021/04/18 14:13:05;;;;;;;7.97;4.38;;;;;;;;;;5052768;28;20079;-79
2021/04/18 14:15:31;;;;;;;6.35;3.40;;;;;;;;;;5052725;28;20025;-79
2021/04/18 14:17:56;;;;;;;7.97;3.60;;;;;;;;;;5048077;28;20396;-79
2021/04/18 14:20:21;;;;;;;8.75;4.05;;;;;;;;;;5044599;28;20021;-79
2021/04/18 14:22:46;;;;;;;6.38;3.67;;;;;;;;;;5048708;28;20477;-79
2021/04/18 14:25:12;;;;;;;10.00;4.10;;;;;;;;;;5057016;28;20024;-79